Time;durP1;ratioP1;P1;durP2;ratioP2;P2;SDS_P1;SDS_P2;PMS_P1;PMS_P2;Temp;Humidity;BMP_temperature;BMP_pressure;BME280_temperature;BME280_humidity;BME280_pressure;Samples;Min_cycle;Max_cycle;Signal;HPM_P1;HPM_P2
2023/04/18 00:00:23;;;;;;;17.77;12.90;;;11.90;97.10;;;;;;4884745;29;20455;-82
2023/04/18 00:02:52;;;;;;;13.50;12.03;;;11.90;97.90;;;;;;4896465;29;20434;-83
2023/04/18 00:05:19;;;;;;;14.47;12.93;;;11.90;98.10;;;;;;4896005;29;20521;-82
2023/04/18 00:07:45;;;;;;;14.17;12.73;;;11.90;98.90;;;;;;4897315;29;20918;-83
2023/04/18 00:10:12;;;;;;;12.87;11.60;;;11.80;99.90;;;;;;4894160;29;20524;-83
2023/04/18 00:12:38;;;;;;;13.43;12.03;;;11.70;99.60;;;;;;4895575;29;20457;-83
2023/04/18 00:15:07;;;;;;;13.20;11.80;;;11.70;99.90;;;;;;4896903;29;20785;-83
2023/04/18 00:17:34;;;;;;;13.40;12.10;;;11.60;99.90;;;;;;4896529;29;20910;-83
2023/04/18 00:20:03;;;;;;;15.00;12.30;;;11.70;99.90;;;;;;4884736;29;20863;-84
2023/04/18 00:22:29;;;;;;;14.90;13.13;;;11.70;99.90;;;;;;4863611;29;20434;-82
2023/04/18 00:24:57;;;;;;;13.40;11.70;;;11.80;99.90;;;;;;4895278;29;20487;-83
2023/04/18 00:27:23;;;;;;;14.20;12.00;;;11.70;99.90;;;;;;4888335;29;20183;-82
2023/04/18 00:29:48;;;;;;;13.30;11.90;;;11.70;99.90;;;;;;4880002;29;20435;-82
2023/04/18 00:32:14;;;;;;;12.10;11.03;;;11.70;99.90;;;;;;4895931;29;20414;-82
2023/04/18 00:34:40;;;;;;;14.33;11.30;;;11.70;99.90;;;;;;4895795;29;20589;-83
2023/04/18 00:37:06;;;;;;;14.50;11.87;;;11.70;99.90;;;;;;4896741;29;20411;-83
2023/04/18 00:39:35;;;;;;;12.10;10.13;;;11.70;99.90;;;;;;4878261;29;20640;-83
2023/04/18 00:42:02;;;;;;;11.90;10.40;;;11.70;99.90;;;;;;4886619;29;20469;-83
2023/04/18 00:44:29;;;;;;;11.63;10.00;;;11.60;99.90;;;;;;4896448;29;20489;-83
2023/04/18 00:46:55;;;;;;;10.47;9.43;;;11.60;99.90;;;;;;4900131;29;20477;-83
2023/04/18 00:49:22;;;;;;;11.63;9.60;;;11.50;99.90;;;;;;4888008;29;20431;-82
2023/04/18 00:51:48;;;;;;;10.57;9.47;;;11.50;99.90;;;;;;4881583;29;20863;-82
2023/04/18 00:54:16;;;;;;;11.50;10.40;;;11.50;99.90;;;;;;4881885;29;20832;-83
2023/04/18 00:56:43;;;;;;;11.67;10.57;;;11.30;99.90;;;;;;4881799;29;20435;-83
2023/04/18 00:59:10;;;;;;;10.57;9.57;;;11.30;99.90;;;;;;4883766;29;20817;-83
2023/04/18 01:01:36;;;;;;;11.60;9.43;;;11.30;99.90;;;;;;4900508;29;20423;-82
2023/04/18 01:04:01;;;;;;;11.30;9.67;;;11.30;99.90;;;;;;4894091;29;20488;-83
2023/04/18 01:06:28;;;;;;;16.80;9.50;;;11.20;99.90;;;;;;4899702;29;20479;-83
2023/04/18 01:08:55;;;;;;;10.13;9.10;;;11.20;99.90;;;;;;4899859;29;20175;-83
2023/04/18 01:11:21;;;;;;;11.00;9.60;;;11.20;99.90;;;;;;4900774;29;20472;-83
2023/04/18 01:14:00;;;;;;;11.73;9.10;;;11.10;99.90;;;;;;4891890;29;20432;-83
2023/04/18 01:16:27;;;;;;;10.07;9.07;;;11.00;99.90;;;;;;4882104;29;20184;-83
2023/04/18 01:18:53;;;;;;;10.90;9.60;;;11.00;99.90;;;;;;4898939;29;20437;-83
2023/04/18 01:21:20;;;;;;;11.23;10.13;;;11.00;99.90;;;;;;4897471;29;20442;-83
2023/04/18 01:23:47;;;;;;;11.27;10.07;;;11.00;99.90;;;;;;4900185;29;20481;-82
2023/04/18 01:26:13;;;;;;;11.40;9.30;;;10.90;99.90;;;;;;4897942;29;20461;-83
2023/04/18 01:28:39;;;;;;;9.97;8.97;;;11.00;99.90;;;;;;4891936;29;20490;-82
2023/04/18 01:31:05;;;;;;;10.93;9.10;;;10.90;99.90;;;;;;4879168;29;20435;-82
2023/04/18 01:33:30;;;;;;;10.73;9.17;;;11.00;99.90;;;;;;4897875;29;20660;-82
2023/04/18 01:35:56;;;;;;;8.77;7.87;;;10.90;99.90;;;;;;4894332;29;20195;-82
2023/04/18 01:38:22;;;;;;;9.10;8.23;;;10.80;99.90;;;;;;4898387;29;20530;-81
2023/04/18 01:40:48;;;;;;;9.70;8.80;;;10.90;99.90;;;;;;4894514;29;20524;-81
2023/04/18 01:43:14;;;;;;;9.67;8.13;;;10.70;99.90;;;;;;4894466;29;20464;-81
2023/04/18 01:45:39;;;;;;;10.00;9.07;;;10.70;99.90;;;;;;4897959;29;20217;-82
2023/04/18 01:48:05;;;;;;;10.00;9.00;;;10.80;99.90;;;;;;4899014;29;20272;-81
2023/04/18 01:50:31;;;;;;;9.37;8.50;;;10.80;99.90;;;;;;4880543;29;20227;-81
2023/04/18 01:52:57;;;;;;;9.30;8.47;;;10.80;99.90;;;;;;4890260;29;20194;-82
2023/04/18 01:55:22;;;;;;;9.80;8.80;;;10.70;99.90;;;;;;4897952;29;20202;-81
2023/04/18 01:57:49;;;;;;;11.10;8.90;;;10.70;99.90;;;;;;4900021;29;20623;-81
2023/04/18 02:00:15;;;;;;;9.37;8.57;;;10.70;99.90;;;;;;4898057;29;20237;-82
2023/04/18 02:02:41;;;;;;;9.40;8.50;;;10.70;99.90;;;;;;4897191;29;20535;-82
2023/04/18 02:05:08;;;;;;;8.80;8.00;;;10.60;99.90;;;;;;4897871;29;20511;-82
2023/04/18 02:07:33;;;;;;;10.03;8.80;;;10.60;99.90;;;;;;4898373;29;20441;-82
2023/04/18 02:09:59;;;;;;;9.50;8.60;;;10.60;99.90;;;;;;4898060;29;20430;-82
2023/04/18 02:12:25;;;;;;;10.07;8.90;;;10.60;99.90;;;;;;4898716;29;20261;-82
2023/04/18 02:14:52;;;;;;;8.80;8.00;;;10.60;99.90;;;;;;4897428;29;20201;-82
2023/04/18 02:17:22;;;;;;;10.00;9.00;;;10.60;99.90;;;;;;4897953;29;20217;-81
2023/04/18 02:19:49;;;;;;;9.33;8.23;;;10.70;99.90;;;;;;4898460;29;20812;-82
2023/04/18 02:22:15;;;;;;;10.30;9.30;;;10.70;99.90;;;;;;4897151;29;20475;-82
2023/04/18 02:24:41;;;;;;;10.73;9.40;;;10.80;99.90;;;;;;4884191;29;20485;-82
2023/04/18 02:27:07;;;;;;;9.97;8.97;;;10.70;99.90;;;;;;4879302;29;20444;-82
2023/04/18 02:29:33;;;;;;;10.53;9.53;;;10.60;99.90;;;;;;4880207;29;20211;-82
2023/04/18 02:32:02;;;;;;;9.80;8.80;;;10.50;99.90;;;;;;4892526;29;20502;-82
2023/04/18 02:34:28;;;;;;;10.13;9.13;;;10.50;99.90;;;;;;4894842;29;20182;-83
2023/04/18 02:36:53;;;;;;;9.53;8.60;;;10.50;99.90;;;;;;4880246;29;20480;-82
2023/04/18 02:39:20;;;;;;;10.13;9.23;;;10.50;99.90;;;;;;4878839;29;20430;-82
2023/04/18 02:41:45;;;;;;;10.63;9.40;;;10.50;99.90;;;;;;4881760;29;20185;-82
2023/04/18 02:44:11;;;;;;;9.40;8.50;;;10.50;99.90;;;;;;4880787;29;20442;-82
2023/04/18 02:46:37;;;;;;;9.97;9.03;;;10.40;99.90;;;;;;4879293;29;20216;-82
2023/04/18 02:49:02;;;;;;;10.80;9.70;;;10.40;99.90;;;;;;4879024;29;20185;-82
2023/04/18 02:51:28;;;;;;;9.20;8.30;;;10.50;99.90;;;;;;4880204;29;20698;-82
2023/04/18 02:53:55;;;;;;;9.20;8.30;;;10.50;99.90;;;;;;4879436;29;20201;-82
2023/04/18 02:56:21;;;;;;;9.90;9.00;;;10.40;99.90;;;;;;4887514;29;20194;-82
2023/04/18 02:58:48;;;;;;;9.60;8.50;;;10.50;99.90;;;;;;4896980;29;20422;-82
2023/04/18 03:01:16;;;;;;;8.17;7.57;;;10.60;99.90;;;;;;4878887;29;20425;-82
2023/04/18 03:03:42;;;;;;;8.83;7.93;;;10.50;99.90;;;;;;4886370;29;20924;-82
2023/04/18 03:06:08;;;;;;;9.10;8.20;;;10.60;99.90;;;;;;4894882;29;20469;-82
2023/04/18 03:08:35;;;;;;;8.90;8.10;;;10.50;99.90;;;;;;4898005;29;20533;-82
2023/04/18 03:11:00;;;;;;;8.20;7.40;;;10.40;99.90;;;;;;4896017;29;20429;-82
2023/04/18 03:13:26;;;;;;;8.97;8.07;;;10.40;99.90;;;;;;4896211;29;20230;-82
2023/04/18 03:15:55;;;;;;;9.47;8.57;;;10.40;99.90;;;;;;4894119;29;20217;-82
2023/04/18 03:18:21;;;;;;;8.93;8.03;;;10.40;99.90;;;;;;4896549;29;20423;-82
2023/04/18 03:20:46;;;;;;;9.20;8.30;;;10.40;99.90;;;;;;4884418;29;20199;-82
2023/04/18 03:23:12;;;;;;;8.80;8.00;;;10.30;99.90;;;;;;4896628;29;20188;-82
2023/04/18 03:25:38;;;;;;;8.67;7.90;;;10.20;99.90;;;;;;4897349;29;20325;-82
2023/04/18 03:28:04;;;;;;;8.50;7.70;;;10.20;99.90;;;;;;4893747;29;20557;-81
2023/04/18 03:30:30;;;;;;;8.37;7.67;;;10.10;99.90;;;;;;4879214;29;20190;-82
2023/04/18 03:32:55;;;;;;;8.43;7.70;;;10.10;99.90;;;;;;4892981;29;20435;-82
2023/04/18 03:35:21;;;;;;;8.83;7.80;;;10.10;99.90;;;;;;4895903;29;20445;-82
2023/04/18 03:37:47;;;;;;;8.63;7.83;;;10.10;99.90;;;;;;4893237;29;20191;-82
2023/04/18 03:40:13;;;;;;;8.63;7.77;;;10.10;99.90;;;;;;4896925;29;20430;-82
2023/04/18 03:42:39;;;;;;;9.00;8.20;;;10.10;99.90;;;;;;4897005;29;20181;-83
2023/04/18 03:45:05;;;;;;;9.77;9.00;;;10.20;99.90;;;;;;4895721;29;20267;-81
2023/04/18 03:47:30;;;;;;;8.67;7.87;;;10.20;99.90;;;;;;4897767;29;20235;-82
2023/04/18 03:49:56;;;;;;;8.07;7.27;;;10.20;99.90;;;;;;4896495;29;20813;-82
2023/04/18 03:52:22;;;;;;;10.00;9.10;;;10.20;99.90;;;;;;4895307;29;20187;-81
2023/04/18 03:54:51;;;;;;;9.90;7.97;;;10.10;99.90;;;;;;4896945;29;20977;-82
2023/04/18 03:57:16;;;;;;;8.20;7.50;;;10.20;99.90;;;;;;4886140;29;20427;-84
2023/04/18 03:59:42;;;;;;;9.17;8.23;;;10.30;99.90;;;;;;4879474;29;20211;-83
2023/04/18 04:02:08;;;;;;;14.63;9.37;;;10.20;99.90;;;;;;4888283;29;20260;-83
2023/04/18 04:04:34;;;;;;;10.40;9.40;;;10.20;99.90;;;;;;4886539;29;20276;-84
2023/04/18 04:07:00;;;;;;;8.27;7.47;;;10.30;99.90;;;;;;4894819;29;20189;-85
2023/04/18 04:09:25;;;;;;;11.17;10.17;;;10.20;99.90;;;;;;4895508;29;21053;-88
2023/04/18 04:11:51;;;;;;;10.87;9.83;;;10.10;99.90;;;;;;4895119;29;20948;-85
2023/04/18 04:14:17;;;;;;;9.83;8.70;;;10.10;99.90;;;;;;4895186;29;20618;-87
2023/04/18 04:16:43;;;;;;;11.63;10.53;;;10.10;99.90;;;;;;4897494;29;20268;-88
2023/04/18 04:19:08;;;;;;;11.07;9.90;;;10.10;99.90;;;;;;4896320;29;20183;-85
2023/04/18 04:21:34;;;;;;;9.67;8.67;;;10.10;99.90;;;;;;4896463;29;20219;-87
2023/04/18 04:24:00;;;;;;;12.60;11.40;;;10.10;99.90;;;;;;4895550;29;20641;-85
2023/04/18 04:26:26;;;;;;;11.67;10.47;;;10.10;99.90;;;;;;4896345;29;20457;-87
2023/04/18 04:28:52;;;;;;;10.23;8.80;;;10.10;99.90;;;;;;4897289;29;20190;-85
2023/04/18 04:31:18;;;;;;;10.83;9.03;;;10.20;99.90;;;;;;4894598;29;20565;-84
2023/04/18 04:33:45;;;;;;;10.67;9.60;;;10.10;99.90;;;;;;4894968;29;20933;-85
2023/04/18 04:36:13;;;;;;;10.00;9.00;;;10.20;99.90;;;;;;4896526;29;20513;-84
2023/04/18 04:38:40;;;;;;;10.63;9.03;;;10.30;99.90;;;;;;4897600;29;20420;-84
2023/04/18 04:41:06;;;;;;;10.60;9.60;;;10.30;99.90;;;;;;4895694;29;20774;-83
2023/04/18 04:43:36;;;;;;;11.70;10.60;;;10.30;99.90;;;;;;4897625;29;20960;-85
2023/04/18 04:46:03;;;;;;;10.83;9.70;;;10.30;99.90;;;;;;4896882;29;20451;-85
2023/04/18 04:48:28;;;;;;;10.20;9.20;;;10.20;99.90;;;;;;4895937;29;20497;-85
2023/04/18 04:50:56;;;;;;;10.03;9.00;;;10.30;99.90;;;;;;4895948;29;20421;-85
2023/04/18 04:53:25;;;;;;;12.10;10.90;;;10.20;99.90;;;;;;4885799;29;20457;-85
2023/04/18 04:55:51;;;;;;;11.53;10.37;;;10.30;99.90;;;;;;4878908;29;20441;-85
2023/04/18 04:58:17;;;;;;;13.10;11.70;;;10.20;99.90;;;;;;4877619;29;20423;-84
2023/04/18 05:00:43;;;;;;;10.60;9.57;;;10.20;99.90;;;;;;4883968;29;20472;-84
2023/04/18 05:03:10;;;;;;;12.43;11.07;;;10.30;99.90;;;;;;4885740;29;20418;-84
2023/04/18 05:05:36;;;;;;;15.50;12.40;;;10.30;99.90;;;;;;4882474;29;20216;-84
2023/04/18 05:08:02;;;;;;;12.33;11.20;;;10.30;99.90;;;;;;4897293;29;20426;-84
2023/04/18 05:10:28;;;;;;;12.60;11.30;;;10.20;99.90;;;;;;4896344;29;20419;-85
2023/04/18 05:12:54;;;;;;;12.73;10.57;;;10.20;99.90;;;;;;4894009;29;20463;-84
2023/04/18 05:15:20;;;;;;;12.67;11.47;;;10.20;99.90;;;;;;4896419;29;20455;-84
2023/04/18 05:17:46;;;;;;;13.63;11.87;;;10.20;99.90;;;;;;4897806;29;20505;-84
2023/04/18 05:20:14;;;;;;;13.80;11.77;;;10.20;99.90;;;;;;4901081;29;20178;-84
2023/04/18 05:22:40;;;;;;;11.87;10.67;;;10.20;99.90;;;;;;4905101;29;20185;-84
2023/04/18 05:25:07;;;;;;;11.63;10.37;;;10.20;99.90;;;;;;4885714;29;20524;-84
2023/04/18 05:27:32;;;;;;;14.70;13.20;;;10.20;99.90;;;;;;4886755;29;20271;-84
2023/04/18 05:29:58;;;;;;;12.63;11.30;;;10.10;99.90;;;;;;4895957;29;20924;-84
2023/04/18 05:32:24;;;;;;;14.47;11.93;;;10.10;99.90;;;;;;4882431;29;20188;-85
2023/04/18 05:34:50;;;;;;;13.37;12.07;;;10.20;99.90;;;;;;4881438;29;20237;-84
2023/04/18 05:37:15;;;;;;;14.07;12.57;;;10.20;99.90;;;;;;4898203;29;20188;-84
2023/04/18 05:39:41;;;;;;;12.60;11.30;;;10.20;99.90;;;;;;4899479;29;20184;-85
2023/04/18 05:42:08;;;;;;;12.50;11.20;;;10.20;99.90;;;;;;4889238;29;20235;-84
2023/04/18 05:44:34;;;;;;;12.67;11.37;;;10.20;99.90;;;;;;4898381;29;20477;-85
2023/04/18 05:47:00;;;;;;;12.47;11.20;;;10.20;99.90;;;;;;4899490;29;20192;-84
2023/04/18 05:49:26;;;;;;;15.10;11.60;;;10.20;99.90;;;;;;4903580;29;20999;-85
2023/04/18 05:51:52;;;;;;;13.77;12.57;;;10.30;99.90;;;;;;4903333;29;20182;-84
2023/04/18 05:54:20;;;;;;;14.50;11.93;;;10.30;99.90;;;;;;4900517;29;20270;-85
2023/04/18 05:56:46;;;;;;;13.23;11.87;;;10.40;99.90;;;;;;4901612;29;20201;-84
2023/04/18 05:59:12;;;;;;;12.10;10.90;;;10.50;99.90;;;;;;4899441;29;20434;-85
2023/04/18 06:01:38;;;;;;;14.30;12.90;;;10.40;99.90;;;;;;4889960;29;20933;-86
2023/04/18 06:04:04;;;;;;;15.73;13.13;;;10.50;99.90;;;;;;4895097;29;20440;-85
2023/04/18 06:06:30;;;;;;;12.53;11.27;;;10.60;99.90;;;;;;4887465;29;20520;-82
2023/04/18 06:08:56;;;;;;;13.87;12.37;;;10.50;99.90;;;;;;4897572;29;20441;-83
2023/04/18 06:11:21;;;;;;;15.47;12.70;;;10.50;99.90;;;;;;4891451;29;21001;-81
2023/04/18 06:13:47;;;;;;;16.80;14.70;;;10.50;99.90;;;;;;4891761;29;20190;-82
2023/04/18 06:16:16;;;;;;;15.23;13.60;;;10.60;99.90;;;;;;4897792;29;20188;-83
2023/04/18 06:18:41;;;;;;;14.27;12.33;;;10.60;99.90;;;;;;4897933;29;20432;-82
2023/04/18 06:21:07;;;;;;;13.10;11.70;;;10.70;99.90;;;;;;4887145;29;20297;-85
2023/04/18 06:23:33;;;;;;;13.10;11.80;;;10.70;99.90;;;;;;4892218;29;20790;-83
2023/04/18 06:25:59;;;;;;;21.97;15.90;;;10.70;99.90;;;;;;4892721;29;20213;-83
2023/04/18 06:28:25;;;;;;;17.27;15.40;;;10.70;99.90;;;;;;4883478;29;20193;-85
2023/04/18 06:30:51;;;;;;;13.97;12.57;;;10.80;99.90;;;;;;4873885;29;20501;-89
2023/04/18 06:33:16;;;;;;;13.60;12.10;;;11.50;99.90;;;;;;4898970;29;20170;-87
2023/04/18 06:35:42;;;;;;;14.77;13.37;;;12.20;99.90;;;;;;4887983;29;20230;-87
2023/04/18 06:38:10;;;;;;;13.83;11.73;;;12.80;99.90;;;;;;4899358;29;20178;-91
2023/04/18 06:40:35;;;;;;;13.07;11.63;;;13.40;99.90;;;;;;4899210;29;20269;-87
2023/04/18 06:43:01;;;;;;;14.20;12.90;;;13.80;99.90;;;;;;4897976;29;20511;-88
2023/04/18 06:45:29;;;;;;;13.43;12.13;;;14.20;99.90;;;;;;4897458;29;20654;-88
2023/04/18 06:47:55;;;;;;;13.00;11.70;;;14.50;99.90;;;;;;4897907;29;20194;-88
2023/04/18 06:50:21;;;;;;;15.00;13.57;;;14.80;99.90;;;;;;4898153;29;20419;-89
2023/04/18 06:52:46;;;;;;;13.60;11.77;;;15.10;99.90;;;;;;4899313;29;20231;-90
2023/04/18 06:55:13;;;;;;;15.30;13.50;;;15.10;99.00;;;;;;4896846;29;20208;-90
2023/04/18 06:57:40;;;;;;;12.40;11.13;;;14.60;96.10;;;;;;4897441;29;20277;-89
2023/04/18 07:00:07;;;;;;;14.93;13.60;;;14.20;96.90;;;;;;4899094;29;20490;-88
2023/04/18 07:02:35;;;;;;;12.83;11.53;;;13.90;97.70;;;;;;4898113;29;20422;-89
2023/04/18 07:05:02;;;;;;;14.20;12.90;;;13.50;98.40;;;;;;4893413;29;20474;-90
2023/04/18 07:07:27;;;;;;;13.47;12.07;;;13.20;99.30;;;;;;4888054;29;20959;-92
2023/04/18 07:09:53;;;;;;;14.90;12.00;;;12.80;99.90;;;;;;4897790;29;20433;-92
2023/04/18 07:12:20;;;;;;;17.23;14.40;;;12.60;99.90;;;;;;4897764;29;20815;-93
2023/04/18 07:14:45;;;;;;;14.30;12.30;;;12.30;99.90;;;;;;4888395;29;20443;-93
2023/04/18 07:17:14;;;;;;;15.37;13.80;;;12.10;99.90;;;;;;4887180;29;20443;-92
2023/04/18 07:19:40;;;;;;;18.40;16.53;;;11.80;99.90;;;;;;4893470;29;20433;-87
2023/04/18 07:22:06;;;;;;;17.20;13.63;;;11.70;99.90;;;;;;4895700;29;20439;-90
2023/04/18 07:24:32;;;;;;;15.67;13.40;;;11.50;99.90;;;;;;4894392;29;20482;-90
2023/04/18 07:26:57;;;;;;;15.97;13.57;;;11.40;99.90;;;;;;4888589;29;20221;-91
2023/04/18 07:29:23;;;;;;;16.13;14.43;;;11.40;99.90;;;;;;4891366;29;20176;-91
2023/04/18 07:31:49;;;;;;;17.00;15.20;;;11.40;99.90;;;;;;4896243;29;20184;-91
2023/04/18 07:34:16;;;;;;;14.93;13.03;;;11.40;99.90;;;;;;4885818;29;20706;-91
2023/04/18 07:36:41;;;;;;;17.10;15.40;;;11.40;99.90;;;;;;4896050;29;20436;-91
2023/04/18 07:39:11;;;;;;;16.20;14.57;;;11.30;99.90;;;;;;4892458;29;20478;-92
2023/04/18 07:41:37;;;;;;;18.17;13.73;;;11.30;99.90;;;;;;4879836;29;20504;-91
2023/04/18 07:44:03;;;;;;;15.70;13.77;;;11.30;99.90;;;;;;4885818;29;20180;-91
2023/04/18 07:46:31;;;;;;;17.40;13.97;;;11.20;99.90;;;;;;4896578;29;20224;-90
2023/04/18 07:48:57;;;;;;;17.33;14.57;;;11.30;99.90;;;;;;4897804;29;20407;-91
2023/04/18 07:51:25;;;;;;;15.67;14.07;;;11.20;99.90;;;;;;4894992;29;20526;-88
2023/04/18 07:53:54;;;;;;;15.40;13.63;;;11.20;99.90;;;;;;4879689;29;20821;-91
2023/04/18 07:56:20;;;;;;;16.23;14.00;;;11.10;99.90;;;;;;4883334;29;20449;-93
2023/04/18 07:58:46;;;;;;;15.90;13.80;;;11.00;99.90;;;;;;4897679;29;20617;-89
2023/04/18 08:01:14;;;;;;;16.20;13.53;;;11.10;99.90;;;;;;4887852;29;20425;-87
2023/04/18 08:03:40;;;;;;;18.53;13.60;;;11.10;99.90;;;;;;4878894;29;20180;-82
2023/04/18 08:06:06;;;;;;;16.17;14.13;;;11.10;99.90;;;;;;4892415;29;20822;-84
2023/04/18 08:08:32;;;;;;;15.50;12.80;;;11.10;99.90;;;;;;4892100;29;20435;-84
2023/04/18 08:10:58;;;;;;;17.03;13.33;;;11.00;99.90;;;;;;4880770;29;20424;-84
2023/04/18 08:13:24;;;;;;;16.20;12.83;;;11.00;99.90;;;;;;4879554;29;20446;-83
2023/04/18 08:15:49;;;;;;;14.80;12.50;;;10.90;99.90;;;;;;4897110;29;20194;-84
2023/04/18 08:18:15;;;;;;;15.30;13.20;;;10.90;99.90;;;;;;4889639;29;20595;-84
2023/04/18 08:20:41;;;;;;;15.93;12.30;;;10.90;99.90;;;;;;4896317;29;20187;-83
2023/04/18 08:23:07;;;;;;;17.80;12.50;;;11.00;99.90;;;;;;4897267;29;20581;-83
2023/04/18 08:25:35;;;;;;;21.30;15.70;;;11.10;99.90;;;;;;4897079;29;20308;-83
2023/04/18 08:28:03;;;;;;;15.83;12.97;;;11.00;99.90;;;;;;4897780;29;20423;-84
2023/04/18 08:30:29;;;;;;;15.70;14.10;;;11.00;99.90;;;;;;4896762;29;20469;-84
2023/04/18 08:32:54;;;;;;;15.10;12.50;;;11.00;99.90;;;;;;4878882;29;20433;-82
2023/04/18 08:35:20;;;;;;;16.30;13.90;;;11.00;99.90;;;;;;4882429;29;20423;-83
2023/04/18 08:37:46;;;;;;;14.47;13.07;;;11.00;99.90;;;;;;4897784;29;20174;-84
2023/04/18 08:40:12;;;;;;;14.97;12.23;;;11.00;99.90;;;;;;4898147;29;20416;-85
2023/04/18 08:42:41;;;;;;;14.07;12.57;;;11.00;99.90;;;;;;4896109;29;20222;-83
2023/04/18 08:45:08;;;;;;;14.87;13.27;;;11.00;99.90;;;;;;4897161;29;20485;-88
2023/04/18 08:47:34;;;;;;;19.17;13.50;;;11.00;99.90;;;;;;4894731;29;20453;-87
2023/04/18 08:50:00;;;;;;;16.50;12.93;;;11.00;99.90;;;;;;4897843;29;20445;-89
2023/04/18 08:52:29;;;;;;;17.00;13.60;;;11.00;99.90;;;;;;4886572;29;20443;-90
2023/04/18 08:54:56;;;;;;;16.30;13.20;;;11.00;99.90;;;;;;4886679;29;20436;-90
2023/04/18 08:57:29;;;;;;;17.03;13.07;;;11.00;99.90;;;;;;4882356;29;20420;-87
2023/04/18 08:59:56;;;;;;;17.13;12.37;;;11.10;99.90;;;;;;4867882;29;20893;-89
2023/04/18 09:02:43;;;;;;;18.73;12.90;;;10.70;99.90;;;;;;4896161;29;20460;-95
2023/04/18 09:05:20;;;;;;;19.93;13.37;;;11.20;99.90;;;;;;4895511;29;20452;-93
2023/04/18 09:07:47;;;;;;;15.43;13.70;;;11.20;99.90;;;;;;4881700;29;20435;-92
2023/04/18 09:10:35;;;;;;;16.30;13.43;;;11.20;99.90;;;;;;4882222;29;20431;-92
2023/04/18 09:13:02;;;;;;;15.33;13.53;;;11.30;99.90;;;;;;4883267;29;20414;-93
2023/04/18 09:15:28;;;;;;;18.20;14.90;;;11.30;99.90;;;;;;4882149;29;20917;-93
2023/04/18 09:17:57;;;;;;;19.43;14.23;;;11.30;99.90;;;;;;4894415;29;20434;-93
2023/04/18 09:20:40;;;;;;;24.80;18.67;;;11.30;99.90;;;;;;4901449;29;20501;-93
2023/04/18 09:23:13;;;;;;;15.30;13.70;;;11.20;99.90;;;;;;4901051;29;20439;-93
2023/04/18 09:25:47;;;;;;;18.03;13.30;;;11.10;99.90;;;;;;4899738;29;20467;-92
2023/04/18 09:28:23;;;;;;;18.60;15.47;;;11.10;99.90;;;;;;4888432;29;20521;-93
2023/04/18 09:30:53;;;;;;;14.70;13.10;;;11.10;99.90;;;;;;4880878;29;20853;-91
2023/04/18 09:33:27;;;;;;;17.97;14.20;;;11.20;99.90;;;;;;4880422;29;20780;-92
2023/04/18 09:35:54;;;;;;;19.90;14.43;;;11.20;99.90;;;;;;4882173;29;20424;-94
2023/04/18 09:38:19;;;;;;;16.27;13.90;;;11.20;99.90;;;;;;4882102;29;20440;-93
2023/04/18 09:40:45;;;;;;;16.90;14.70;;;11.30;99.90;;;;;;4882446;29;20460;-93
2023/04/18 09:43:20;;;;;;;17.57;14.03;;;11.30;99.90;;;;;;4882019;29;20416;-94
2023/04/18 09:45:49;;;;;;;19.57;14.30;;;11.40;99.90;;;;;;4882036;29;20206;-92
2023/04/18 09:48:15;;;;;;;17.60;14.00;;;11.30;99.90;;;;;;4882193;29;20878;-92
2023/04/18 09:50:42;;;;;;;17.10;14.20;;;11.40;99.90;;;;;;4880904;29;20932;-92
2023/04/18 09:53:09;;;;;;;18.50;14.10;;;11.50;99.90;;;;;;4880232;29;20438;-92
2023/04/18 09:55:37;;;;;;;19.40;14.13;;;11.50;99.90;;;;;;4881047;29;20450;-91
2023/04/18 09:58:03;;;;;;;17.40;12.77;;;11.60;99.90;;;;;;4875846;29;20431;-92
2023/04/18 10:00:30;;;;;;;18.90;14.03;;;11.70;99.90;;;;;;4900978;29;20449;-92
2023/04/18 10:03:07;;;;;;;20.17;14.03;;;11.80;99.90;;;;;;4899367;29;20494;-92
2023/04/18 10:05:35;;;;;;;21.10;15.27;;;11.90;99.90;;;;;;4899958;29;20456;-92
2023/04/18 10:08:02;;;;;;;19.40;15.77;;;12.00;99.90;;;;;;4915958;29;20439;-93
2023/04/18 10:10:28;;;;;;;18.47;13.87;;;12.00;99.90;;;;;;4922954;29;20406;-91
2023/04/18 10:12:56;;;;;;;16.00;12.97;;;12.00;99.90;;;;;;4924020;29;20433;-93
2023/04/18 10:15:25;;;;;;;18.10;13.60;;;12.10;99.90;;;;;;4911323;29;20536;-92
2023/04/18 10:17:59;;;;;;;16.10;13.33;;;12.10;99.90;;;;;;4914020;29;20569;-91
2023/04/18 10:20:29;;;;;;;23.57;17.80;;;12.30;99.90;;;;;;4921636;29;20433;-91
2023/04/18 10:22:56;;;;;;;20.43;17.00;;;12.40;99.90;;;;;;4910687;29;20434;-92
2023/04/18 10:25:37;;;;;;;17.07;13.77;;;12.60;99.90;;;;;;4900588;29;20489;-91
2023/04/18 10:28:04;;;;;;;15.83;14.13;;;12.70;99.90;;;;;;4900260;29;20496;-93
2023/04/18 10:30:39;;;;;;;19.00;14.60;;;12.80;99.90;;;;;;4899424;29;20436;-92
2023/04/18 10:33:24;;;;;;;18.83;14.50;;;12.90;99.90;;;;;;4899783;29;20437;-92
2023/04/18 10:36:00;;;;;;;14.33;12.03;;;13.10;99.90;;;;;;4899985;29;20500;-92
2023/04/18 10:38:26;;;;;;;17.07;15.07;;;13.20;99.90;;;;;;4899133;29;20414;-92
2023/04/18 10:41:10;;;;;;;16.87;13.50;;;13.30;99.90;;;;;;4899628;29;20418;-93
2023/04/18 10:44:05;;;;;;;17.53;13.80;;;13.30;99.90;;;;;;4898316;29;20510;-93
2023/04/18 10:46:31;;;;;;;16.13;13.80;;;13.40;99.90;;;;;;4899154;29;20461;-93
2023/04/18 10:49:12;;;;;;;19.90;17.50;;;13.40;99.90;;;;;;4898648;29;20432;-93
2023/04/18 10:51:38;;;;;;;17.23;14.00;;;13.50;99.90;;;;;;4898674;29;20424;-92
2023/04/18 10:54:08;;;;;;;20.87;13.83;;;13.50;99.90;;;;;;4899718;29;20433;-92
2023/04/18 10:56:34;;;;;;;17.00;14.80;;;13.50;99.90;;;;;;4897791;29;20808;-92
2023/04/18 10:59:01;;;;;;;17.00;13.43;;;13.50;99.90;;;;;;4899758;29;20417;-93
2023/04/18 11:01:31;;;;;;;15.70;13.03;;;13.50;99.90;;;;;;4899716;29;20413;-92
2023/04/18 11:03:58;;;;;;;16.93;14.23;;;13.60;99.90;;;;;;4887467;29;20948;-92
2023/04/18 11:06:27;;;;;;;17.73;14.50;;;13.60;99.90;;;;;;4894559;29;20559;-92
2023/04/18 11:09:12;;;;;;;16.23;12.77;;;13.80;99.90;;;;;;4898542;29;20431;-92
2023/04/18 11:11:39;;;;;;;16.10;14.40;;;14.00;99.90;;;;;;4899168;29;20924;-92
2023/04/18 11:14:05;;;;;;;16.30;13.70;;;14.30;99.90;;;;;;4899050;29;20829;-93
2023/04/18 11:16:32;;;;;;;17.13;13.27;;;14.50;99.90;;;;;;4899070;29;20420;-92
2023/04/18 11:18:58;;;;;;;16.00;14.07;;;14.80;99.90;;;;;;4899288;29;20175;-93
2023/04/18 11:21:28;;;;;;;18.13;14.80;;;14.90;99.90;;;;;;4898517;29;20424;-91
2023/04/18 11:23:55;;;;;;;15.97;14.00;;;14.90;99.90;;;;;;4894683;29;20483;-92
2023/04/18 11:26:25;;;;;;;15.10;13.20;;;14.80;99.90;;;;;;4880176;29;20470;-93
2023/04/18 11:29:01;;;;;;;17.00;14.50;;;14.90;99.90;;;;;;4880216;29;20420;-93
2023/04/18 11:31:27;;;;;;;15.67;13.80;;;14.80;99.90;;;;;;4880344;29;20460;-92
2023/04/18 11:33:55;;;;;;;16.67;14.50;;;14.80;99.90;;;;;;4881494;29;20504;-92
2023/04/18 11:36:21;;;;;;;17.43;15.43;;;14.80;99.90;;;;;;4881860;29;20416;-93
2023/04/18 11:38:47;;;;;;;16.63;14.77;;;14.70;99.90;;;;;;4879869;29;20453;-93
2023/04/18 11:41:14;;;;;;;16.77;14.10;;;14.60;99.90;;;;;;4880222;29;20492;-92
2023/04/18 11:43:44;;;;;;;17.50;14.57;;;14.70;99.90;;;;;;4891584;29;20663;-93
2023/04/18 11:46:11;;;;;;;16.27;14.20;;;14.70;99.90;;;;;;4898356;29;20495;-93
2023/04/18 11:48:39;;;;;;;17.90;14.97;;;14.70;99.90;;;;;;4898108;29;20414;-92
2023/04/18 11:51:06;;;;;;;15.40;13.67;;;14.70;99.90;;;;;;4898585;29;20774;-93
2023/04/18 11:53:36;;;;;;;18.27;15.60;;;14.70;99.90;;;;;;4897827;29;20479;-92
2023/04/18 11:56:03;;;;;;;21.03;14.40;;;14.70;99.90;;;;;;4898537;29;20412;-92
2023/04/18 11:58:33;;;;;;;15.63;13.80;;;14.70;99.90;;;;;;4896957;29;20444;-92
2023/04/18 12:01:19;;;;;;;17.43;15.63;;;14.80;99.90;;;;;;4900601;29;20414;-92
2023/04/18 12:04:03;;;;;;;16.27;14.57;;;15.00;99.90;;;;;;4899088;29;20436;-92
2023/04/18 12:06:49;;;;;;;15.47;13.87;;;15.40;99.90;;;;;;4896750;29;20472;-93
2023/04/18 12:09:20;;;;;;;17.00;15.20;;;15.60;99.90;;;;;;4897335;29;20438;-93
2023/04/18 12:12:02;;;;;;;16.50;14.80;;;15.70;99.90;;;;;;4896544;29;20780;-92
2023/04/18 12:14:29;;;;;;;16.37;13.80;;;15.90;99.60;;;;;;4897752;29;20415;-92
2023/04/18 12:16:55;;;;;;;16.33;14.63;;;16.10;99.90;;;;;;4897234;29;20419;-92
2023/04/18 12:19:31;;;;;;;18.83;13.33;;;16.10;98.10;;;;;;4896871;29;20470;-93
2023/04/18 12:22:05;;;;;;;17.43;15.53;;;16.20;98.00;;;;;;4896900;29;20419;-93
2023/04/18 12:24:31;;;;;;;14.17;12.73;;;16.30;97.20;;;;;;4895883;29;20984;-93
2023/04/18 12:27:00;;;;;;;15.77;14.17;;;16.40;97.90;;;;;;4897795;29;20553;-93
2023/04/18 12:29:27;;;;;;;15.00;13.50;;;16.30;97.30;;;;;;4896343;29;20430;-87
2023/04/18 12:31:53;;;;;;;16.23;14.07;;;16.40;96.80;;;;;;4897929;29;20419;-93